Time,TemperatureF,DewpointF,PressureIn,WindDirection,WindDirectionDegrees,WindSpeedMPH,WindSpeedGustMPH,Humidity,HourlyPrecipIn,Conditions,Clouds,dailyrainin,SolarRadiationWatts/m^2,SoftwareType,DateUTC
2013-03-07 00:01:00,38.0,6.0,-100.00,SSW,202,22.0,49.0,26,0.00,,,0.00,0.000000,,2013-03-07 07:01:00,
2013-03-07 00:11:00,38.0,6.0,-100.00,SSW,202,22.0,49.0,26,0.00,,,0.00,0.000000,,2013-03-07 07:11:00,
2013-03-07 00:21:00,38.0,6.0,-100.00,SSW,202,22.0,49.0,26,0.00,,,0.00,0.000000,,2013-03-07 07:21:00,
2013-03-07 00:32:00,38.0,6.0,-100.00,SSW,202,22.0,49.0,26,0.00,,,0.00,0.000000,,2013-03-07 07:32:00,
2013-03-07 00:53:00,39.0,6.0,-100.00,SSW,204,22.0,43.0,25,0.00,,,0.00,0.000000,,2013-03-07 07:53:00,
2013-03-07 01:02:00,39.0,6.0,-100.00,SSW,204,22.0,43.0,25,0.00,,,0.00,0.000000,,2013-03-07 08:02:00,
2013-03-07 01:12:00,39.0,6.0,-100.00,SSW,204,22.0,43.0,25,0.00,,,0.00,0.000000,,2013-03-07 08:12:00,
2013-03-07 01:22:00,39.0,6.0,-100.00,SSW,204,22.0,43.0,25,0.00,,,0.00,0.000000,,2013-03-07 08:22:00,
2013-03-07 01:33:00,39.0,6.0,-100.00,SSW,204,22.0,43.0,25,0.00,,,0.00,0.000000,,2013-03-07 08:33:00,
2013-03-07 01:54:00,39.0,7.0,-100.00,SSW,195,25.0,52.0,26,0.00,,,0.00,0.000000,,2013-03-07 08:54:00,
2013-03-07 02:03:00,39.0,7.0,-100.00,SSW,195,25.0,52.0,26,0.00,,,0.00,0.000000,,2013-03-07 09:03:00,
2013-03-07 02:13:00,39.0,7.0,-100.00,SSW,195,25.0,52.0,26,0.00,,,0.00,0.000000,,2013-03-07 09:13:00,
2013-03-07 02:23:00,39.0,7.0,-100.00,SSW,195,25.0,52.0,26,0.00,,,0.00,0.000000,,2013-03-07 09:23:00,
2013-03-07 02:32:00,39.0,7.0,-100.00,SSW,195,25.0,52.0,26,0.00,,,0.00,0.000000,,2013-03-07 09:32:00,
2013-03-07 02:53:00,38.0,6.0,-100.00,SSW,207,23.0,44.0,26,0.00,,,0.00,0.000000,,2013-03-07 09:53:00,
2013-03-07 03:03:00,38.0,6.0,-100.00,SSW,207,23.0,44.0,26,0.00,,,0.00,0.000000,,2013-03-07 10:03:00,
2013-03-07 03:13:00,38.0,6.0,-100.00,SSW,207,23.0,44.0,26,0.00,,,0.00,0.000000,,2013-03-07 10:13:00,
2013-03-07 03:23:00,38.0,6.0,-100.00,SSW,207,23.0,44.0,26,0.00,,,0.00,0.000000,,2013-03-07 10:23:00,
2013-03-07 03:33:00,38.0,6.0,-100.00,SSW,207,23.0,44.0,26,0.00,,,0.00,0.000000,,2013-03-07 10:33:00,
2013-03-07 03:53:00,38.0,6.0,-100.00,SSW,196,21.0,40.0,26,0.00,,,0.00,0.000000,,2013-03-07 10:53:00,
2013-03-07 04:03:00,38.0,6.0,-100.00,SSW,196,21.0,40.0,26,0.00,,,0.00,0.000000,,2013-03-07 11:03:00,
2013-03-07 04:12:00,38.0,6.0,-100.00,SSW,196,21.0,40.0,26,0.00,,,0.00,0.000000,,2013-03-07 11:12:00,
2013-03-07 04:23:00,38.0,6.0,-100.00,SSW,196,21.0,40.0,26,0.00,,,0.00,0.000000,,2013-03-07 11:23:00,
2013-03-07 04:33:00,38.0,6.0,-100.00,SSW,196,21.0,40.0,26,0.00,,,0.00,0.000000,,2013-03-07 11:33:00,
2013-03-07 04:54:00,38.0,6.0,-100.00,SSW,194,22.0,38.0,26,0.00,,,0.00,0.000000,,2013-03-07 11:54:00,
2013-03-07 05:03:00,38.0,6.0,-100.00,SSW,194,22.0,38.0,26,0.00,,,0.00,0.000000,,2013-03-07 12:03:00,
2013-03-07 05:12:00,38.0,6.0,-100.00,SSW,194,22.0,38.0,26,0.00,,,0.00,0.000000,,2013-03-07 12:12:00,
2013-03-07 05:23:00,38.0,6.0,-100.00,SSW,194,22.0,38.0,26,0.00,,,0.00,0.000000,,2013-03-07 12:23:00,
2013-03-07 05:33:00,38.0,6.0,-100.00,SSW,194,22.0,38.0,26,0.00,,,0.00,0.000000,,2013-03-07 12:33:00,
2013-03-07 05:53:00,37.0,5.0,-100.00,SSW,195,15.0,43.0,26,0.00,,,0.00,0.000000,,2013-03-07 12:53:00,
2013-03-07 06:02:00,37.0,5.0,-100.00,SSW,195,15.0,43.0,26,0.00,,,0.00,0.000000,,2013-03-07 13:02:00,
2013-03-07 06:12:00,37.0,5.0,-100.00,SSW,195,15.0,43.0,26,0.00,,,0.00,0.000000,,2013-03-07 13:12:00,
2013-03-07 06:22:00,37.0,5.0,-100.00,SSW,195,15.0,43.0,26,0.00,,,0.00,0.000000,,2013-03-07 13:22:00,
2013-03-07 06:32:00,37.0,5.0,-100.00,SSW,195,15.0,43.0,26,0.00,,,0.00,0.000000,,2013-03-07 13:32:00,
2013-03-07 06:53:00,37.0,4.0,-100.00,South,189,15.0,29.0,25,0.00,,,0.00,1.000000,,2013-03-07 13:53:00,
2013-03-07 07:02:00,37.0,4.0,-100.00,South,189,15.0,29.0,25,0.00,,,0.00,1.000000,,2013-03-07 14:02:00,
2013-03-07 07:12:00,37.0,4.0,-100.00,South,189,15.0,29.0,25,0.00,,,0.00,1.000000,,2013-03-07 14:12:00,
2013-03-07 07:23:00,37.0,4.0,-100.00,South,189,15.0,29.0,25,0.00,,,0.00,1.000000,,2013-03-07 14:23:00,
2013-03-07 07:33:00,37.0,4.0,-100.00,South,189,15.0,29.0,25,0.00,,,0.00,1.000000,,2013-03-07 14:33:00,
2013-03-07 07:54:00,38.0,3.0,-100.00,SSW,200,11.0,29.0,22,0.00,,,0.00,14.000000,,2013-03-07 14:54:00,
2013-03-07 08:03:00,38.0,3.0,-100.00,SSW,200,11.0,29.0,22,0.00,,,0.00,14.000000,,2013-03-07 15:03:00,
2013-03-07 08:12:00,38.0,3.0,-100.00,SSW,200,11.0,29.0,22,0.00,,,0.00,14.000000,,2013-03-07 15:12:00,
2013-03-07 08:32:00,38.0,3.0,-100.00,SSW,200,11.0,29.0,22,0.00,,,0.00,14.000000,,2013-03-07 15:32:00,
2013-03-07 08:53:00,39.0,2.0,-100.00,SSW,213,9.0,22.0,21,0.00,,,0.00,132.000000,,2013-03-07 15:53:00,
2013-03-07 09:02:00,39.0,2.0,-100.00,SSW,213,9.0,22.0,21,0.00,,,0.00,132.000000,,2013-03-07 16:02:00,
2013-03-07 09:12:00,39.0,2.0,-100.00,SSW,213,9.0,22.0,21,0.00,,,0.00,132.000000,,2013-03-07 16:12:00,
2013-03-07 09:23:00,39.0,2.0,-100.00,SSW,213,9.0,22.0,21,0.00,,,0.00,132.000000,,2013-03-07 16:23:00,
2013-03-07 09:32:00,39.0,2.0,-100.00,SSW,213,9.0,22.0,21,0.00,,,0.00,132.000000,,2013-03-07 16:32:00,
2013-03-07 09:53:00,43.0,1.0,-100.00,SW,229,10.0,24.0,17,0.00,,,0.00,516.000000,,2013-03-07 16:53:00,
2013-03-07 10:02:00,43.0,1.0,-100.00,SW,229,10.0,24.0,17,0.00,,,0.00,516.000000,,2013-03-07 17:02:00,
2013-03-07 10:12:00,43.0,1.0,-100.00,SW,229,10.0,24.0,17,0.00,,,0.00,516.000000,,2013-03-07 17:12:00,
2013-03-07 10:22:00,43.0,1.0,-100.00,SW,229,10.0,24.0,17,0.00,,,0.00,516.000000,,2013-03-07 17:22:00,
2013-03-07 10:32:00,43.0,1.0,-100.00,SW,229,10.0,24.0,17,0.00,,,0.00,516.000000,,2013-03-07 17:32:00,
2013-03-07 10:54:00,45.0,0.0,-100.00,WSW,238,11.0,24.0,15,0.00,,,0.00,712.000000,,2013-03-07 17:54:00,
2013-03-07 11:03:00,45.0,0.0,-100.00,WSW,238,11.0,24.0,15,0.00,,,0.00,712.000000,,2013-03-07 18:03:00,
2013-03-07 11:12:00,45.0,0.0,-100.00,WSW,238,11.0,24.0,15,0.00,,,0.00,712.000000,,2013-03-07 18:12:00,
2013-03-07 11:22:00,45.0,0.0,-100.00,WSW,238,11.0,24.0,15,0.00,,,0.00,712.000000,,2013-03-07 18:22:00,
2013-03-07 11:32:00,45.0,0.0,-100.00,WSW,238,11.0,24.0,15,0.00,,,0.00,712.000000,,2013-03-07 18:32:00,
2013-03-07 11:34:00,47.0,3.0,-100.00,NW,315,6.0,21.0,16,0.00,,,-99.99,781.000000,,2013-03-07 18:34:00,
2013-03-07 11:53:00,47.0,3.0,-100.00,NW,315,6.0,21.0,16,0.00,,,-99.99,781.000000,,2013-03-07 18:53:00,
2013-03-07 12:03:00,47.0,3.0,-100.00,NW,315,6.0,21.0,16,0.00,,,-99.99,781.000000,,2013-03-07 19:03:00,
2013-03-07 12:12:00,47.0,3.0,-100.00,NW,315,6.0,21.0,16,0.00,,,-99.99,781.000000,,2013-03-07 19:12:00,
2013-03-07 12:23:00,47.0,3.0,-100.00,NW,315,6.0,21.0,16,0.00,,,-99.99,781.000000,,2013-03-07 19:23:00,
2013-03-07 12:53:00,48.0,1.0,-100.00,West,259,8.0,23.0,14,0.00,,,0.00,836.000000,,2013-03-07 19:53:00,
2013-03-07 13:02:00,48.0,1.0,-100.00,West,259,8.0,23.0,14,0.00,,,0.00,836.000000,,2013-03-07 20:02:00,
2013-03-07 13:13:00,48.0,1.0,-100.00,West,259,8.0,23.0,14,0.00,,,0.00,836.000000,,2013-03-07 20:13:00,
2013-03-07 13:22:00,48.0,1.0,-100.00,West,259,8.0,23.0,14,0.00,,,0.00,836.000000,,2013-03-07 20:22:00,
2013-03-07 13:33:00,48.0,1.0,-100.00,West,259,8.0,23.0,14,0.00,,,0.00,836.000000,,2013-03-07 20:33:00,
2013-03-07 13:54:00,48.0,1.0,-100.00,NW,322,8.0,19.0,14,0.00,,,0.00,838.000000,,2013-03-07 20:54:00,
2013-03-07 14:03:00,48.0,1.0,-100.00,NW,322,8.0,19.0,14,0.00,,,0.00,838.000000,,2013-03-07 21:03:00,
2013-03-07 14:12:00,48.0,1.0,-100.00,NW,322,8.0,19.0,14,0.00,,,0.00,838.000000,,2013-03-07 21:12:00,
2013-03-07 14:22:00,48.0,1.0,-100.00,NW,322,8.0,19.0,14,0.00,,,0.00,838.000000,,2013-03-07 21:22:00,
2013-03-07 14:32:00,48.0,1.0,-100.00,NW,322,8.0,19.0,14,0.00,,,0.00,838.000000,,2013-03-07 21:32:00,
2013-03-07 14:53:00,49.0,5.0,-100.00,East,97,6.0,20.0,16,0.00,,,0.00,734.000000,,2013-03-07 21:53:00,
2013-03-07 15:02:00,49.0,5.0,-100.00,East,97,6.0,20.0,16,0.00,,,0.00,734.000000,,2013-03-07 22:02:00,
2013-03-07 15:12:00,49.0,5.0,-100.00,East,97,6.0,20.0,16,0.00,,,0.00,734.000000,,2013-03-07 22:12:00,
2013-03-07 15:22:00,49.0,5.0,-100.00,East,97,6.0,20.0,16,0.00,,,0.00,734.000000,,2013-03-07 22:22:00,
2013-03-07 15:32:00,49.0,5.0,-100.00,East,97,6.0,20.0,16,0.00,,,0.00,734.000000,,2013-03-07 22:32:00,
2013-03-07 15:54:00,50.0,3.0,-100.00,South,187,6.0,23.0,14,0.00,,,0.00,589.000000,,2013-03-07 22:54:00,
2013-03-07 16:03:00,50.0,3.0,-100.00,South,187,6.0,23.0,14,0.00,,,0.00,589.000000,,2013-03-07 23:03:00,
2013-03-07 16:13:00,50.0,3.0,-100.00,South,187,6.0,23.0,14,0.00,,,0.00,589.000000,,2013-03-07 23:13:00,
2013-03-07 16:22:00,50.0,3.0,-100.00,South,187,6.0,23.0,14,0.00,,,0.00,589.000000,,2013-03-07 23:22:00,
2013-03-07 16:33:00,50.0,3.0,-100.00,South,187,6.0,23.0,14,0.00,,,0.00,589.000000,,2013-03-07 23:33:00,
2013-03-07 16:34:00,49.0,0.0,-100.00,South,189,8.0,20.0,13,0.00,,,0.00,397.000000,,2013-03-07 23:34:00,
2013-03-07 16:54:00,49.0,0.0,-100.00,South,189,8.0,20.0,13,0.00,,,0.00,397.000000,,2013-03-07 23:54:00,
2013-03-07 17:04:00,49.0,0.0,-100.00,South,189,8.0,20.0,13,0.00,,,0.00,397.000000,,2013-03-08 00:04:00,
2013-03-07 17:13:00,49.0,0.0,-100.00,South,189,8.0,20.0,13,0.00,,,0.00,397.000000,,2013-03-08 00:13:00,
2013-03-07 17:23:00,49.0,0.0,-100.00,South,189,8.0,20.0,13,0.00,,,0.00,397.000000,,2013-03-08 00:23:00,
2013-03-07 17:54:00,47.0,0.0,-100.00,SSW,208,9.0,20.0,14,0.00,,,0.00,185.000000,,2013-03-08 00:54:00,
2013-03-07 18:02:00,47.0,0.0,-100.00,SSW,208,9.0,20.0,14,0.00,,,0.00,185.000000,,2013-03-08 01:02:00,
2013-03-07 18:11:00,47.0,0.0,-100.00,SSW,208,9.0,20.0,14,0.00,,,0.00,185.000000,,2013-03-08 01:11:00,
2013-03-07 18:21:00,47.0,0.0,-100.00,SSW,208,9.0,20.0,14,0.00,,,0.00,185.000000,,2013-03-08 01:21:00,
2013-03-07 18:32:00,47.0,0.0,-100.00,SSW,208,9.0,20.0,14,0.00,,,0.00,185.000000,,2013-03-08 01:32:00,
2013-03-07 18:52:00,42.0,0.0,-100.00,SSW,202,11.0,24.0,17,0.00,,,0.00,7.000000,,2013-03-08 01:52:00,
2013-03-07 19:01:00,42.0,0.0,-100.00,SSW,202,11.0,24.0,17,0.00,,,0.00,7.000000,,2013-03-08 02:01:00,
2013-03-07 19:11:00,42.0,0.0,-100.00,SSW,202,11.0,24.0,17,0.00,,,0.00,7.000000,,2013-03-08 02:11:00,
2013-03-07 19:22:00,42.0,0.0,-100.00,SSW,202,11.0,24.0,17,0.00,,,0.00,7.000000,,2013-03-08 02:22:00,
2013-03-07 19:32:00,42.0,0.0,-100.00,SSW,202,11.0,24.0,17,0.00,,,0.00,7.000000,,2013-03-08 02:32:00,
2013-03-07 19:53:00,42.0,2.0,-100.00,SSW,210,11.0,23.0,18,0.00,,,0.00,0.000000,,2013-03-08 02:53:00,
2013-03-07 20:02:00,42.0,2.0,-100.00,SSW,210,11.0,23.0,18,0.00,,,0.00,0.000000,,2013-03-08 03:02:00,
2013-03-07 20:12:00,42.0,2.0,-100.00,SSW,210,11.0,23.0,18,0.00,,,0.00,0.000000,,2013-03-08 03:12:00,
2013-03-07 20:22:00,42.0,2.0,-100.00,SSW,210,11.0,23.0,18,0.00,,,0.00,0.000000,,2013-03-08 03:22:00,
2013-03-07 20:32:00,42.0,2.0,-100.00,SSW,210,11.0,23.0,18,0.00,,,0.00,0.000000,,2013-03-08 03:32:00,
2013-03-07 20:53:00,41.0,5.0,-100.00,SW,218,13.0,30.0,22,0.00,,,0.00,0.000000,,2013-03-08 03:53:00,
2013-03-07 21:01:00,41.0,5.0,-100.00,SW,218,13.0,30.0,22,0.00,,,0.00,0.000000,,2013-03-08 04:01:00,
2013-03-07 21:11:00,41.0,5.0,-100.00,SW,218,13.0,30.0,22,0.00,,,0.00,0.000000,,2013-03-08 04:11:00,
2013-03-07 21:22:00,41.0,5.0,-100.00,SW,218,13.0,30.0,22,0.00,,,0.00,0.000000,,2013-03-08 04:22:00,
2013-03-07 21:32:00,41.0,5.0,-100.00,SW,218,13.0,30.0,22,0.00,,,0.00,0.000000,,2013-03-08 04:32:00,
2013-03-07 21:52:00,41.0,7.0,-100.00,SSW,205,8.0,21.0,24,0.00,,,0.00,0.000000,,2013-03-08 04:52:00,
2013-03-07 22:02:00,41.0,7.0,-100.00,SSW,205,8.0,21.0,24,0.00,,,0.00,0.000000,,2013-03-08 05:02:00,
2013-03-07 22:12:00,41.0,7.0,-100.00,SSW,205,8.0,21.0,24,0.00,,,0.00,0.000000,,2013-03-08 05:12:00,
2013-03-07 22:22:00,41.0,7.0,-100.00,SSW,205,8.0,21.0,24,0.00,,,0.00,0.000000,,2013-03-08 05:22:00,
2013-03-07 22:32:00,41.0,7.0,-100.00,SSW,205,8.0,21.0,24,0.00,,,0.00,0.000000,,2013-03-08 05:32:00,
2013-03-07 22:52:00,40.0,9.0,-100.00,SSW,213,6.0,34.0,27,0.00,,,0.00,0.000000,,2013-03-08 05:52:00,
2013-03-07 23:01:00,40.0,9.0,-100.00,SSW,213,6.0,34.0,27,0.00,,,0.00,0.000000,,2013-03-08 06:01:00,
2013-03-07 23:11:00,40.0,9.0,-100.00,SSW,213,6.0,34.0,27,0.00,,,0.00,0.000000,,2013-03-08 06:11:00,
2013-03-07 23:22:00,40.0,9.0,-100.00,SSW,213,6.0,34.0,27,0.00,,,0.00,0.000000,,2013-03-08 06:22:00,
2013-03-07 23:32:00,40.0,9.0,-100.00,SSW,213,6.0,34.0,27,0.00,,,0.00,0.000000,,2013-03-08 06:32:00,
2013-03-07 23:52:00,40.0,11.0,-100.00,ESE,108,4.0,18.0,30,0.00,,,0.00,0.000000,,2013-03-08 06:52:00,